createdAt,value
2023-12-24T00:01:08.396Z,2.40
2023-12-24T00:03:35.310Z,2.40
2023-12-24T00:06:02.215Z,2.40
2023-12-24T00:08:30.199Z,2.40
2023-12-24T00:11:00.322Z,2.40
2023-12-24T00:13:27.259Z,2.30
2023-12-24T00:15:53.981Z,2.30
2023-12-24T00:18:20.890Z,2.30
2023-12-24T00:20:47.830Z,2.30
2023-12-24T00:23:14.654Z,2.30
2023-12-24T00:25:44.392Z,2.20
2023-12-24T00:28:11.131Z,2.20
2023-12-24T00:30:38.055Z,2.10
2023-12-24T00:33:04.984Z,2.10
2023-12-24T00:35:33.947Z,2.10
2023-12-24T00:38:01.076Z,2.00
2023-12-24T00:40:27.897Z,2.00
2023-12-24T00:42:54.874Z,1.90
2023-12-24T00:45:21.744Z,1.90
2023-12-24T00:47:48.641Z,1.80
2023-12-24T00:50:15.623Z,1.70
2023-12-24T00:52:42.381Z,1.70
2023-12-24T00:55:09.428Z,1.60
2023-12-24T00:57:38.934Z,1.60
2023-12-24T01:00:06.391Z,1.60
2023-12-24T01:02:33.268Z,1.50
2023-12-24T01:05:00.160Z,1.50
2023-12-24T01:07:26.968Z,1.50
2023-12-24T01:09:53.648Z,1.40
2023-12-24T01:12:20.424Z,1.30
2023-12-24T01:14:47.142Z,1.30
2023-12-24T01:17:14.559Z,1.20
2023-12-24T01:19:41.400Z,1.20
2023-12-24T01:22:09.327Z,1.20
2023-12-24T01:24:36.081Z,1.10
2023-12-24T01:27:02.768Z,1.10
2023-12-24T01:29:29.512Z,1.00
2023-12-24T01:31:56.274Z,1.00
2023-12-24T01:34:23.059Z,1.00
2023-12-24T01:36:49.862Z,1.00
2023-12-24T01:39:16.620Z,0.90
2023-12-24T01:41:45.099Z,0.90
2023-12-24T01:44:11.880Z,0.90
2023-12-24T01:46:38.808Z,0.80
2023-12-24T01:49:06.167Z,0.90
2023-12-24T01:51:33.539Z,0.80
2023-12-24T01:54:02.925Z,0.80
2023-12-24T01:56:31.726Z,0.80
2023-12-24T01:58:58.951Z,0.80
2023-12-24T02:01:27.547Z,0.70
2023-12-24T02:03:54.382Z,0.70
2023-12-24T02:06:22.808Z,0.60
2023-12-24T02:08:49.691Z,0.60
2023-12-24T02:11:17.616Z,0.50
2023-12-24T02:13:45.304Z,0.50
2023-12-24T02:16:12.495Z,0.40
2023-12-24T02:18:39.725Z,0.40
2023-12-24T02:21:06.736Z,0.30
2023-12-24T02:23:33.631Z,0.30
2023-12-24T02:26:23.827Z,0.20
2023-12-24T02:28:52.329Z,0.20
2023-12-24T02:31:20.750Z,0.20
2023-12-24T02:33:50.661Z,0.10
2023-12-24T02:36:18.227Z,0.10
2023-12-24T02:38:44.966Z,0.10
2023-12-24T02:41:11.729Z,0.10
2023-12-24T02:43:38.587Z,0.00
2023-12-24T02:46:05.311Z,0.00
2023-12-24T02:48:32.182Z,0.00
2023-12-24T02:50:58.927Z,0.00
2023-12-24T02:53:25.738Z,0.00
2023-12-24T02:55:52.463Z,0.00
2023-12-24T02:58:19.145Z,0.00
2023-12-24T03:00:45.980Z,0.00
2023-12-24T03:03:12.811Z,0.00
2023-12-24T03:05:39.698Z,0.00
2023-12-24T03:08:06.596Z,0.00
2023-12-24T03:10:33.383Z,0.00
2023-12-24T03:13:00.117Z,0.00
2023-12-24T03:15:26.833Z,0.00
2023-12-24T03:17:53.800Z,0.00
2023-12-24T03:20:20.679Z,0.00
2023-12-24T03:22:47.409Z,0.00
2023-12-24T03:25:14.156Z,0.00
2023-12-24T03:27:40.899Z,0.00
2023-12-24T03:30:08.102Z,0.00
2023-12-24T03:32:34.962Z,0.00
2023-12-24T03:35:01.773Z,0.10
2023-12-24T03:37:28.523Z,0.10
2023-12-24T03:39:55.218Z,0.10
2023-12-24T03:42:22.032Z,0.10
2023-12-24T03:44:48.709Z,0.10
2023-12-24T03:47:15.503Z,0.10
2023-12-24T03:49:42.284Z,0.20
2023-12-24T03:52:09.036Z,0.20
2023-12-24T03:54:35.745Z,0.20
2023-12-24T03:57:02.429Z,0.20
2023-12-24T03:59:31.290Z,0.30
2023-12-24T04:01:58.096Z,0.30
2023-12-24T04:04:24.957Z,0.30
2023-12-24T04:06:51.644Z,0.30
2023-12-24T04:09:18.380Z,0.30
2023-12-24T04:11:48.043Z,0.30
2023-12-24T04:14:14.869Z,0.40
2023-12-24T04:16:41.633Z,0.40
2023-12-24T04:19:08.632Z,0.40
2023-12-24T04:21:35.427Z,0.40
2023-12-24T04:24:02.322Z,0.40
2023-12-24T04:26:29.095Z,0.40
2023-12-24T04:28:55.901Z,0.50
2023-12-24T04:31:22.660Z,0.50
2023-12-24T04:33:49.523Z,0.50
2023-12-24T04:36:22.053Z,0.50
2023-12-24T04:38:48.967Z,0.50
2023-12-24T04:41:16.874Z,0.50
2023-12-24T04:43:43.631Z,0.50
2023-12-24T04:46:10.380Z,0.60
2023-12-24T04:48:37.471Z,0.60
2023-12-24T04:51:04.797Z,0.60
2023-12-24T04:53:31.578Z,0.60
2023-12-24T04:55:58.295Z,0.60
2023-12-24T04:58:25.038Z,0.60
2023-12-24T05:00:52.016Z,0.70
2023-12-24T05:03:18.809Z,0.70
2023-12-24T05:05:45.619Z,0.70
2023-12-24T05:08:12.377Z,0.70
2023-12-24T05:10:39.199Z,0.80
2023-12-24T05:13:06.030Z,0.80
2023-12-24T05:15:32.751Z,0.80
2023-12-24T05:17:59.710Z,0.80
2023-12-24T05:20:26.745Z,0.90
2023-12-24T05:22:53.691Z,0.90
2023-12-24T05:25:21.791Z,0.90
2023-12-24T05:27:48.531Z,0.90
2023-12-24T05:30:15.312Z,1.00
2023-12-24T05:32:42.289Z,1.00
2023-12-24T05:35:09.186Z,1.00
2023-12-24T05:37:35.919Z,1.10
2023-12-24T05:40:02.681Z,1.10
2023-12-24T05:42:29.363Z,1.10
2023-12-24T05:44:56.278Z,1.10
2023-12-24T05:47:23.123Z,1.10
2023-12-24T05:49:49.863Z,1.20
2023-12-24T05:52:16.612Z,1.20
2023-12-24T05:54:43.368Z,1.20
2023-12-24T05:57:10.069Z,1.30
2023-12-24T05:59:36.814Z,1.30
2023-12-24T06:02:03.874Z,1.30
2023-12-24T06:04:30.691Z,1.40
2023-12-24T06:07:00.123Z,1.40
2023-12-24T06:09:26.833Z,1.50
2023-12-24T06:11:53.597Z,1.50
2023-12-24T06:14:20.346Z,1.50
2023-12-24T06:16:47.131Z,1.60
2023-12-24T06:19:16.922Z,1.60
2023-12-24T06:21:44.529Z,1.60
2023-12-24T06:24:11.224Z,1.60
2023-12-24T06:26:38.029Z,1.70
2023-12-24T06:29:04.779Z,1.70
2023-12-24T06:31:31.656Z,1.80
2023-12-24T06:33:58.447Z,1.80
2023-12-24T06:36:25.194Z,1.90
2023-12-24T06:42:09.782Z,2.00
2023-12-24T06:44:36.495Z,2.10
2023-12-24T06:47:03.360Z,2.20
2023-12-24T06:49:30.185Z,2.20
2023-12-24T06:51:56.873Z,2.30
2023-12-24T06:54:23.694Z,2.50
2023-12-24T06:56:50.424Z,2.60
2023-12-24T06:59:17.444Z,2.70
2023-12-24T07:01:44.442Z,2.80
2023-12-24T07:04:11.480Z,2.80
2023-12-24T07:06:38.264Z,2.90
2023-12-24T07:09:06.851Z,3.00
2023-12-24T07:11:33.580Z,3.10
2023-12-24T07:14:00.446Z,3.20
2023-12-24T07:16:27.162Z,3.30
2023-12-24T07:18:53.946Z,3.40
2023-12-24T07:21:20.695Z,3.60
2023-12-24T07:23:48.113Z,3.80
2023-12-24T07:26:14.957Z,3.90
2023-12-24T07:28:41.717Z,4.10
2023-12-24T07:31:08.500Z,4.20
2023-12-24T07:33:35.384Z,4.30
2023-12-24T07:36:02.867Z,4.40
2023-12-24T07:38:30.815Z,4.50
2023-12-24T07:40:57.783Z,4.60
2023-12-24T07:43:24.596Z,4.70
2023-12-24T07:45:51.669Z,4.80
2023-12-24T07:48:19.123Z,4.90
2023-12-24T07:50:46.174Z,5.00
2023-12-24T07:53:13.024Z,5.10
2023-12-24T07:55:40.530Z,5.20
2023-12-24T07:58:07.300Z,5.30
2023-12-24T08:00:33.992Z,5.30
2023-12-24T08:03:00.769Z,5.50
2023-12-24T08:05:27.573Z,5.50
2023-12-24T08:07:54.318Z,5.70
2023-12-24T08:10:21.104Z,5.70
2023-12-24T08:12:48.726Z,5.80
2023-12-24T08:15:15.631Z,5.80
2023-12-24T08:17:42.582Z,5.90
2023-12-24T08:20:10.336Z,5.90
2023-12-24T08:22:38.091Z,6.00
2023-12-24T08:25:05.112Z,6.10
2023-12-24T08:27:32.405Z,6.10
2023-12-24T08:29:59.134Z,6.20
2023-12-24T08:32:26.963Z,6.20
2023-12-24T08:34:54.813Z,6.30
2023-12-24T08:37:21.626Z,6.40
2023-12-24T08:39:48.335Z,6.40
2023-12-24T08:42:15.143Z,6.50
2023-12-24T08:44:42.279Z,6.50
2023-12-24T08:47:09.176Z,6.60
2023-12-24T08:49:35.988Z,6.70
2023-12-24T08:52:02.958Z,6.70
2023-12-24T08:54:29.669Z,6.80
2023-12-24T08:56:56.447Z,6.80
2023-12-24T08:59:23.148Z,6.90
2023-12-24T09:01:50.594Z,6.90
2023-12-24T09:04:17.657Z,7.00
2023-12-24T09:09:13.796Z,7.00
2023-12-24T09:11:40.541Z,7.10
2023-12-24T09:14:07.798Z,7.20
2023-12-24T09:16:34.524Z,7.20
2023-12-24T09:19:01.340Z,7.30
2023-12-24T09:21:28.083Z,7.30
2023-12-24T09:23:56.175Z,7.30
2023-12-24T09:26:23.020Z,7.40
2023-12-24T09:28:49.760Z,7.40
2023-12-24T09:31:16.756Z,7.40
2023-12-24T09:33:43.545Z,7.50
2023-12-24T09:36:10.391Z,7.50
2023-12-24T09:38:37.437Z,7.50
2023-12-24T09:41:04.373Z,7.60
2023-12-24T09:43:31.964Z,7.60
2023-12-24T09:45:58.955Z,7.60
2023-12-24T09:48:25.873Z,7.70
2023-12-24T09:50:52.812Z,7.70
2023-12-24T09:53:19.652Z,7.70
2023-12-24T09:55:46.516Z,7.80
2023-12-24T09:58:13.212Z,7.80
2023-12-24T10:00:39.943Z,7.80
2023-12-24T10:03:06.680Z,7.90
2023-12-24T10:05:33.682Z,7.90
2023-12-24T10:08:00.605Z,7.90
2023-12-24T10:10:30.969Z,7.90
2023-12-24T10:13:03.800Z,8.00
2023-12-24T10:15:32.251Z,8.00
2023-12-24T10:18:15.602Z,8.00
2023-12-24T10:20:42.559Z,8.00
2023-12-24T10:23:09.770Z,8.10
2023-12-24T10:25:36.488Z,8.10
2023-12-24T10:28:07.937Z,8.10
2023-12-24T10:30:35.047Z,8.10
2023-12-24T10:33:09.923Z,8.10
2023-12-24T10:35:37.114Z,8.20
2023-12-24T10:38:11.973Z,8.20
2023-12-24T10:40:39.035Z,8.20
2023-12-24T10:43:05.762Z,8.20
2023-12-24T10:45:32.532Z,8.20
2023-12-24T10:47:59.274Z,8.30
2023-12-24T10:50:26.159Z,8.30
2023-12-24T10:52:56.416Z,8.30
2023-12-24T10:55:23.383Z,8.30
2023-12-24T10:57:53.538Z,8.30
2023-12-24T11:00:21.523Z,8.30
2023-12-24T11:02:50.543Z,8.30
2023-12-24T11:05:36.280Z,8.40
2023-12-24T11:08:03.205Z,8.40
2023-12-24T11:10:44.039Z,8.40
2023-12-24T11:13:12.621Z,8.40
2023-12-24T11:15:40.686Z,8.50
2023-12-24T11:18:07.750Z,8.50
2023-12-24T11:20:39.708Z,8.50
2023-12-24T11:23:06.686Z,8.60
2023-12-24T11:25:36.283Z,8.60
2023-12-24T11:28:03.380Z,8.60
2023-12-24T11:30:50.359Z,8.60
2023-12-24T11:33:29.725Z,8.60
2023-12-24T11:35:57.573Z,8.60
2023-12-24T11:38:37.039Z,8.70
2023-12-24T11:41:06.797Z,8.70
2023-12-24T11:43:33.671Z,8.70
2023-12-24T11:46:00.453Z,8.70
2023-12-24T11:48:28.994Z,8.80
2023-12-24T11:51:08.899Z,8.80
2023-12-24T11:53:36.413Z,8.90
2023-12-24T11:56:13.703Z,8.80
2023-12-24T11:58:41.430Z,8.90
2023-12-24T12:01:08.224Z,8.90
2023-12-24T12:03:36.191Z,8.90
2023-12-24T12:06:04.288Z,8.90
2023-12-24T12:08:31.721Z,8.90
2023-12-24T12:10:58.825Z,9.00
2023-12-24T12:13:25.775Z,9.00
2023-12-24T12:15:52.497Z,9.00
2023-12-24T12:18:19.559Z,9.00
2023-12-24T12:20:46.836Z,9.00
2023-12-24T12:23:19.851Z,9.00
2023-12-24T12:25:53.242Z,9.00
2023-12-24T12:28:19.929Z,9.00
2023-12-24T12:30:47.128Z,9.00
2023-12-24T12:33:14.092Z,9.10
2023-12-24T12:35:41.024Z,9.10
2023-12-24T12:38:07.806Z,9.10
2023-12-24T12:40:36.824Z,9.10
2023-12-24T12:43:10.477Z,9.10
2023-12-24T12:45:37.521Z,9.10
2023-12-24T12:48:04.976Z,9.20
2023-12-24T12:50:32.112Z,9.20
2023-12-24T12:52:59.440Z,9.10
2023-12-24T12:55:26.301Z,9.10
2023-12-24T12:57:53.324Z,9.10
2023-12-24T13:00:21.341Z,9.10
2023-12-24T13:02:49.337Z,9.10
2023-12-24T13:05:25.518Z,9.10
2023-12-24T13:07:52.542Z,9.10
2023-12-24T13:10:29.630Z,9.20
2023-12-24T13:13:10.028Z,9.20
2023-12-24T13:15:39.399Z,9.20
2023-12-24T13:18:15.631Z,9.20
2023-12-24T13:20:46.850Z,9.20
2023-12-24T13:23:14.001Z,9.20
2023-12-24T13:25:44.418Z,9.20
2023-12-24T13:28:11.864Z,9.20
2023-12-24T13:30:39.064Z,9.20
2023-12-24T13:33:06.419Z,9.20
2023-12-24T13:35:36.136Z,9.20
2023-12-24T13:38:04.808Z,9.20
2023-12-24T13:40:32.944Z,9.20
2023-12-24T13:42:59.832Z,9.20
2023-12-24T13:45:27.023Z,9.20
2023-12-24T13:47:53.934Z,9.20
2023-12-24T13:50:21.536Z,9.20
2023-12-24T13:52:48.950Z,9.30
2023-12-24T13:55:18.188Z,9.30
2023-12-24T13:57:45.015Z,9.30
2023-12-24T14:00:12.905Z,9.30
2023-12-24T14:02:40.409Z,9.30
2023-12-24T14:05:08.130Z,9.40
2023-12-24T14:07:35.125Z,9.30
2023-12-24T14:10:01.849Z,9.40
2023-12-24T14:12:28.745Z,9.30
2023-12-24T14:15:07.452Z,9.40
2023-12-24T14:17:34.956Z,9.40
2023-12-24T14:20:02.033Z,9.40
2023-12-24T14:22:29.633Z,9.40
2023-12-24T14:24:59.403Z,9.40
2023-12-24T14:27:27.135Z,9.40
2023-12-24T14:29:54.796Z,9.50
2023-12-24T14:32:21.724Z,9.40
2023-12-24T14:34:50.975Z,9.40
2023-12-24T14:37:18.339Z,9.50
2023-12-24T14:39:45.167Z,9.50
2023-12-24T14:42:11.904Z,9.50
2023-12-24T14:44:38.761Z,9.50
2023-12-24T14:47:05.913Z,9.50
2023-12-24T14:49:32.773Z,9.60
2023-12-24T14:51:59.567Z,9.60
2023-12-24T14:54:26.252Z,9.60
2023-12-24T14:56:53.004Z,9.60
2023-12-24T14:59:19.811Z,9.60
2023-12-24T15:01:47.078Z,9.60
2023-12-24T15:04:14.446Z,9.60
2023-12-24T15:06:41.418Z,9.60
2023-12-24T15:09:12.915Z,9.70
2023-12-24T15:11:40.137Z,9.70
2023-12-24T15:14:07.453Z,9.70
2023-12-24T15:16:34.358Z,9.70
2023-12-24T15:19:01.575Z,9.70
2023-12-24T15:21:28.409Z,9.70
2023-12-24T15:23:55.918Z,9.70
2023-12-24T15:26:23.266Z,9.70
2023-12-24T15:28:53.112Z,9.70
2023-12-24T15:31:20.515Z,9.70
2023-12-24T15:33:47.351Z,9.80
2023-12-24T15:36:14.191Z,9.80
2023-12-24T15:38:41.091Z,9.80
2023-12-24T15:41:07.964Z,9.80
2023-12-24T15:43:36.326Z,9.70
2023-12-24T15:46:07.252Z,9.80
2023-12-24T15:48:34.011Z,9.80
2023-12-24T15:51:01.792Z,9.80
2023-12-24T15:53:28.526Z,9.80
2023-12-24T15:55:55.273Z,9.80
2023-12-24T15:58:23.923Z,9.80
2023-12-24T16:00:50.776Z,9.70
2023-12-24T16:03:17.529Z,9.80
2023-12-24T16:05:44.348Z,9.80
2023-12-24T16:08:11.129Z,9.80
2023-12-24T16:10:37.869Z,9.80
2023-12-24T16:13:04.608Z,9.80
2023-12-24T16:15:33.064Z,9.80
2023-12-24T16:18:02.084Z,9.80
2023-12-24T16:20:28.880Z,9.80
2023-12-24T16:22:55.762Z,9.80
2023-12-24T16:25:22.604Z,9.80
2023-12-24T16:27:49.351Z,9.80
2023-12-24T16:30:16.170Z,9.80
2023-12-24T16:32:42.968Z,9.80
2023-12-24T16:35:11.022Z,9.80
2023-12-24T16:37:37.955Z,9.80
2023-12-24T16:40:04.917Z,9.80
2023-12-24T16:42:31.606Z,9.80
2023-12-24T16:44:58.318Z,9.80
2023-12-24T16:47:25.716Z,9.80
2023-12-24T16:49:52.500Z,9.80
2023-12-24T16:52:19.245Z,9.80
2023-12-24T16:54:45.997Z,9.80
2023-12-24T16:57:12.704Z,9.80
2023-12-24T16:59:39.514Z,9.80
2023-12-24T17:02:06.592Z,9.80
2023-12-24T17:04:33.254Z,9.80
2023-12-24T17:07:00.060Z,9.80
2023-12-24T17:09:26.788Z,9.90
2023-12-24T17:11:53.547Z,9.80
2023-12-24T17:14:20.285Z,9.90
2023-12-24T17:16:47.052Z,9.80
2023-12-24T17:19:13.790Z,9.80
2023-12-24T17:21:40.663Z,9.80
2023-12-24T17:24:08.235Z,9.80
2023-12-24T17:26:35.010Z,9.80
2023-12-24T17:29:01.742Z,9.80
2023-12-24T17:31:28.466Z,9.80
2023-12-24T17:33:55.720Z,9.90
2023-12-24T17:36:23.031Z,9.80
2023-12-24T17:38:49.855Z,9.90
2023-12-24T17:41:19.917Z,9.90
2023-12-24T17:43:46.740Z,9.90
2023-12-24T17:46:13.543Z,9.90
2023-12-24T17:48:40.568Z,10.00
2023-12-24T17:51:07.437Z,10.00
2023-12-24T17:53:34.512Z,10.00
2023-12-24T17:56:01.231Z,10.10
2023-12-24T17:58:27.948Z,10.10
2023-12-24T18:00:54.647Z,10.20
2023-12-24T18:03:21.487Z,10.20
2023-12-24T18:05:48.436Z,10.20
2023-12-24T18:08:15.375Z,10.30
2023-12-24T18:10:42.148Z,10.30
2023-12-24T18:13:08.850Z,10.30
2023-12-24T18:15:35.577Z,10.40
2023-12-24T18:18:03.986Z,10.40
2023-12-24T18:20:30.895Z,10.40
2023-12-24T18:22:57.615Z,10.40
2023-12-24T18:25:24.413Z,10.50
2023-12-24T18:27:51.146Z,10.50
2023-12-24T18:30:18.437Z,10.50
2023-12-24T18:32:45.334Z,10.60
2023-12-24T18:35:12.196Z,10.60
2023-12-24T18:37:38.993Z,10.60
2023-12-24T18:40:06.082Z,10.60
2023-12-24T18:42:32.961Z,10.50
2023-12-24T18:44:59.768Z,10.60
2023-12-24T18:47:26.624Z,10.60
2023-12-24T18:49:53.361Z,10.60
2023-12-24T18:52:20.315Z,10.60
2023-12-24T18:54:48.167Z,10.70
2023-12-24T18:57:15.122Z,10.70
2023-12-24T18:59:41.918Z,10.70
2023-12-24T19:02:08.762Z,10.70
2023-12-24T19:04:35.523Z,10.70
2023-12-24T19:07:03.747Z,10.70
2023-12-24T19:09:32.257Z,10.70
2023-12-24T19:11:59.034Z,10.70
2023-12-24T19:14:25.835Z,10.70
2023-12-24T19:16:53.798Z,10.60
2023-12-24T19:19:20.639Z,10.60
2023-12-24T19:21:48.787Z,10.70
2023-12-24T19:24:16.366Z,10.60
2023-12-24T19:26:43.519Z,10.60
2023-12-24T19:29:13.163Z,10.60
2023-12-24T19:31:40.512Z,10.70
2023-12-24T19:34:07.680Z,10.70
2023-12-24T19:36:34.672Z,10.70
2023-12-24T19:39:01.414Z,10.60
2023-12-24T19:41:28.737Z,10.70
2023-12-24T19:43:55.496Z,10.60
2023-12-24T19:46:26.057Z,10.60
2023-12-24T19:48:56.491Z,10.60
2023-12-24T19:51:23.878Z,10.50
2023-12-24T19:53:52.734Z,10.60
2023-12-24T19:56:19.723Z,10.60
2023-12-24T19:58:46.507Z,10.60
2023-12-24T20:01:13.353Z,10.60
2023-12-24T20:03:40.623Z,10.60
2023-12-24T20:06:07.594Z,10.60
2023-12-24T20:08:34.428Z,10.60
2023-12-24T20:11:01.204Z,10.50
2023-12-24T20:13:27.944Z,10.50
2023-12-24T20:15:54.660Z,10.60
2023-12-24T20:18:21.486Z,10.50
2023-12-24T20:20:48.338Z,10.50
2023-12-24T20:23:15.972Z,10.50
2023-12-24T20:25:42.725Z,10.40
2023-12-24T20:28:10.160Z,10.40
2023-12-24T20:30:36.964Z,10.30
2023-12-24T20:33:08.973Z,10.20
2023-12-24T20:35:36.141Z,10.30
2023-12-24T20:38:02.865Z,10.20
2023-12-24T20:40:30.175Z,10.20
2023-12-24T20:42:56.867Z,10.10
2023-12-24T20:48:53.118Z,10.10
2023-12-24T20:51:20.005Z,9.90
2023-12-24T20:53:46.689Z,9.90
2023-12-24T20:56:38.443Z,9.80
2023-12-24T20:59:05.968Z,9.80
2023-12-24T21:01:32.734Z,9.90
2023-12-24T21:03:59.617Z,9.80
2023-12-24T21:06:26.543Z,9.80
2023-12-24T21:08:53.655Z,9.70
2023-12-24T21:11:20.504Z,9.60
2023-12-24T21:13:47.240Z,9.60
2023-12-24T21:16:14.347Z,9.60
2023-12-24T21:18:41.914Z,9.60
2023-12-24T21:21:08.697Z,9.60
2023-12-24T21:23:35.512Z,9.60
2023-12-24T21:26:02.216Z,9.70
2023-12-24T21:28:28.943Z,9.80
2023-12-24T21:30:55.713Z,9.80
2023-12-24T21:33:22.710Z,9.90
2023-12-24T21:35:49.573Z,9.90
2023-12-24T21:38:17.597Z,9.80
2023-12-24T21:40:45.554Z,9.80
2023-12-24T21:43:12.257Z,9.80
2023-12-24T21:45:39.040Z,9.80
2023-12-24T21:50:36.019Z,9.80
2023-12-24T21:53:03.655Z,9.80
2023-12-24T21:55:33.378Z,10.00
2023-12-24T21:58:01.532Z,10.00
2023-12-24T22:00:34.084Z,9.90
2023-12-24T22:05:33.921Z,9.90
2023-12-24T22:08:02.114Z,9.90
2023-12-24T22:10:28.874Z,10.00
2023-12-24T22:12:55.597Z,9.90
2023-12-24T22:15:22.290Z,9.90
2023-12-24T22:17:49.215Z,9.90
2023-12-24T22:20:16.148Z,9.90
2023-12-24T22:22:43.245Z,9.70
2023-12-24T22:25:09.981Z,9.70
2023-12-24T22:27:36.748Z,9.70
2023-12-24T22:30:03.794Z,9.70
2023-12-24T22:32:31.112Z,9.70
2023-12-24T22:34:58.630Z,9.60
2023-12-24T22:37:25.436Z,9.50
2023-12-24T22:39:52.091Z,9.50
2023-12-24T22:42:18.858Z,9.40
2023-12-24T22:44:46.050Z,9.40
2023-12-24T22:47:12.971Z,9.40
2023-12-24T22:49:39.944Z,9.40
2023-12-24T22:52:06.792Z,9.40
2023-12-24T22:54:33.526Z,9.40
2023-12-24T22:57:00.440Z,9.40
2023-12-24T22:59:27.272Z,9.40
2023-12-24T23:01:54.425Z,9.40
2023-12-24T23:04:21.138Z,9.50
2023-12-24T23:06:47.928Z,9.60
2023-12-24T23:09:14.731Z,9.70
2023-12-24T23:11:41.545Z,9.70
2023-12-24T23:14:08.359Z,9.70
2023-12-24T23:16:35.065Z,9.70
2023-12-24T23:19:01.950Z,9.60
2023-12-24T23:21:28.806Z,9.60
2023-12-24T23:23:55.546Z,9.60
2023-12-24T23:26:22.286Z,9.60
2023-12-24T23:28:49.097Z,9.70
2023-12-24T23:31:15.796Z,9.70
2023-12-24T23:33:42.613Z,9.70
2023-12-24T23:36:12.792Z,9.60
2023-12-24T23:38:40.175Z,9.60
2023-12-24T23:41:07.019Z,9.60
2023-12-24T23:43:35.297Z,9.80
2023-12-24T23:46:04.093Z,9.90
2023-12-24T23:48:30.855Z,9.90
2023-12-24T23:50:57.699Z,9.90
2023-12-24T23:53:24.456Z,9.90
2023-12-24T23:55:51.190Z,9.90
2023-12-24T23:58:20.163Z,9.80
